Dobrodošli na spletni strani vremenske postaje Senovo. Vse informacije so informativnega značaja, saj vremenska postaja ni del državne mreže meteoroloških postaj. AKTUALNIH OBVESTIL NI.


Sneg/Led Od: 22-02-2018 00:00 Do: 23-02-2018 23:59 Opozorilo za: Sneg/Led Stopnja: Rumena info button
Veter Od: 22-02-2018 00:00 Do: 23:59 Opozorilo za: Veter Stopnja: Rumena info button

Pogled proti Armezu več informacij Pogled proti Armezu


Lisca več informacij Lisca


Radar strel več informacij blitzortung!


opozorilo za sneg/led več informacij rain snow radar


Obiščite še:

Template documentation
and downloads

And another site



Weather Underground, zgodovina - Tekstovno

Dnevni povzetek za Januar 1, 2018 Enote:  Metrično    Angleško   Obe
« Predhodni Dan
Naslednji Dan »
Dnevni Tedenski Mesečni Letni Po meri
  Višja: Nižja: Povprečje:
Temperatura: -17.8 °C -15.2 °C -13.9 °C
Točka rosišča: -17.8 °C -16.2 °C -15.2 °C
Vlažnost: Humidity % 76 % 85 %
Hitrost vetra: 0 km/h 0 km/h 5.5 km/h
Sunki vetra: 0 km/h - -
Veter:- - South
Zračni tlak: 0 hPa 34097 hPa -
Padavine: 330.2 mm    
Historical Graphs
 
 
Tabelarni podarki za Januar 1, 2018
Čas Temperatura Točka rosišča Zračni tlak Veter Hitrost vetra Sunki vetra Vlažnost Intenziteta padavin (urna)
-17.8 °C -17.8 °C 0 hPa Calm     Humidity % 0 mm
00:00 -13.5 °C -15.7 °C 34269.7 hPa South 5.6 km/h 11.1 km/h 76 % 0 mm
00:05 -13.5 °C -15.7 °C 34269.7 hPa SSW 5.1 km/h 11.1 km/h 76 % 0 mm
00:07 -13.5 °C -15.7 °C 34269.7 hPa SW 3.9 km/h 11.1 km/h 76 % 0 mm
00:12 -13.4 °C -15.7 °C 34269.7 hPa SSW 4.2 km/h 11.1 km/h 76 % 0 mm
00:17 -13.4 °C -15.7 °C 34269.7 hPa SSW 4.3 km/h 11.1 km/h 76 % 0 mm
00:21 -13.4 °C -15.7 °C 34269.7 hPa WSW 3.4 km/h 6.9 km/h 76 % 0 mm
00:23 -13.4 °C -15.7 °C 34269.7 hPa SW 3.4 km/h 7.6 km/h 76 % 0 mm
00:24 -13.4 °C -15.7 °C 34269.7 hPa SW 3.7 km/h 8.9 km/h 76 % 0 mm
00:29 -13.4 °C -15.6 °C 34269.7 hPa SSW 6.3 km/h 19.2 km/h 76 % 0 mm
00:30 -13.4 °C -15.6 °C 34269.7 hPa SSW 6.3 km/h 19.2 km/h 76 % 0 mm
00:35 -13.3 °C -15.6 °C 34269.7 hPa SW 6.4 km/h 19.2 km/h 76 % 0 mm
00:38 -13.3 °C -15.5 °C 34269.7 hPa SW 6.3 km/h 12.7 km/h 76 % 0 mm
00:39 -13.3 °C -15.5 °C 34269.7 hPa WSW 5.6 km/h 12.7 km/h 76 % 0 mm
00:44 -13.3 °C -15.5 °C 34269.7 hPa WSW 4.3 km/h 11.1 km/h 76 % 0 mm
00:49 -13.2 °C -15.4 °C 34269.7 hPa SW 4.7 km/h 10.3 km/h 76 % 0 mm
00:54 -13.2 °C -15.4 °C 34269.7 hPa WSW 6 km/h 14 km/h 76 % 0 mm
00:55 -13.2 °C -15.4 °C 34269.7 hPa WSW 6 km/h 14 km/h 76 % 0 mm
00:57 -13.2 °C -15.4 °C 34269.7 hPa WSW 5.6 km/h 14 km/h 76 % 0 mm
01:02 -13.2 °C -15.4 °C 34235.8 hPa WSW 5.1 km/h 16.3 km/h 76 % 0 mm
01:04 -13.2 °C -15.4 °C 34235.8 hPa WSW 5.6 km/h 16.3 km/h 76 % 0 mm
01:09 -13.2 °C -15.4 °C 34235.8 hPa WSW 5.6 km/h 16.3 km/h 76 % 0 mm
01:10 -13.2 °C -15.4 °C 34235.8 hPa WSW 5.6 km/h 16.3 km/h 76 % 0 mm
01:15 -13.2 °C -15.4 °C 34235.8 hPa West 3.7 km/h 8.9 km/h 76 % 0 mm
01:16 -13.2 °C -15.4 °C 34235.8 hPa West 2.6 km/h 8.9 km/h 76 % 0 mm
01:20 -13.3 °C -15.5 °C 34235.8 hPa WSW 1.8 km/h 8.9 km/h 76 % 0 mm
01:25 -13.3 °C -15.6 °C 34235.8 hPa SW 1.8 km/h 8 km/h 76 % 0 mm
01:29 -13.4 °C -15.5 °C 34235.8 hPa SW 2.1 km/h 8 km/h 77 % 0 mm
01:31 -13.4 °C -15.5 °C 34235.8 hPa SSW 1 km/h 6.4 km/h 77 % 0 mm
01:37 -13.6 °C -15.8 °C 34235.8 hPa NW 0.5 km/h 2.9 km/h 76 % 0 mm
01:42 -13.6 °C -15.8 °C 34235.8 hPa WSW 2.1 km/h 9.3 km/h 76 % 0 mm
01:47 -13.6 °C -15.8 °C 34235.8 hPa WSW 2.1 km/h 9.3 km/h 76 % 0 mm
01:51 -13.7 °C -15.9 °C 34235.8 hPa West 1.8 km/h 8 km/h 76 % 0 mm
01:56 -13.7 °C -15.8 °C 34235.8 hPa West 2.3 km/h 10.3 km/h 77 % 0 mm
01:57 -13.7 °C -15.8 °C 34235.8 hPa West 2.9 km/h 10.3 km/h 77 % 0 mm
01:58 -13.7 °C -15.8 °C 34235.8 hPa WSW 3.4 km/h 10.3 km/h 77 % 0 mm
02:02 -13.7 °C -15.8 °C 34235.8 hPa SW 5 km/h 12.7 km/h 77 % 0 mm
02:07 -13.7 °C -15.8 °C 34235.8 hPa SW 6.8 km/h 12.7 km/h 77 % 0 mm
02:10 -13.7 °C -15.8 °C 34235.8 hPa SW 5.5 km/h 12.7 km/h 77 % 0 mm
02:15 -13.7 °C -15.8 °C 34198.6 hPa WNW 6.3 km/h 20.9 km/h 77 % 0 mm
02:16 -13.7 °C -15.8 °C 34198.6 hPa WNW 6.4 km/h 20.9 km/h 77 % 0 mm
02:17 -13.7 °C -15.8 °C 34198.6 hPa NW 6.8 km/h 20.9 km/h 77 % 0 mm
02:22 -13.7 °C -15.8 °C 34198.6 hPa NW 6.8 km/h 15.6 km/h 77 % 0 mm
02:23 -13.7 °C -15.8 °C 34198.6 hPa NW 6.9 km/h 15.6 km/h 77 % 0 mm
02:28 -13.6 °C -15.6 °C 34235.8 hPa West 5 km/h 12.7 km/h 78 % 0 mm
02:33 -13.6 °C -15.6 °C 34235.8 hPa West 5 km/h 14.5 km/h 78 % 0 mm
02:34 -13.6 °C -15.6 °C 34235.8 hPa West 4.2 km/h 14.5 km/h 78 % 0 mm
02:39 -13.6 °C -15.6 °C 34235.8 hPa West 4.7 km/h 14.5 km/h 78 % 0 mm
02:41 -13.6 °C -15.6 °C 34235.8 hPa West 3.9 km/h 14.5 km/h 78 % 0 mm
02:46 -13.7 °C -15.7 °C 34235.8 hPa NNW 2.3 km/h 6.9 km/h 78 % 0 mm
02:48 -13.7 °C -15.7 °C 34235.8 hPa NNW 1.8 km/h 6.9 km/h 78 % 0 mm
02:49 -13.7 °C -15.7 °C 34235.8 hPa NNW 1.8 km/h 6.9 km/h 78 % 0 mm
02:54 -13.8 °C -15.8 °C 34235.8 hPa West 1.6 km/h 6.9 km/h 78 % 0 mm
02:58 -13.9 °C -15.9 °C 34235.8 hPa WSW 0.3 km/h 4.2 km/h 78 % 0 mm
02:59 -13.9 °C -15.9 °C 34235.8 hPa WSW 0.3 km/h 4.2 km/h 78 % 0 mm
03:03 -14 °C -15.9 °C 34235.8 hPa NW 0.3 km/h 5.6 km/h 79 % 0 mm
03:06 -14.1 °C -15.9 °C 34235.8 hPa NW 0.5 km/h 5.6 km/h 79 % 0 mm
03:09 -14.1 °C -15.9 °C 34235.8 hPa West 1.3 km/h 7.6 km/h 79 % 0 mm
03:12 -14 °C -15.9 °C 34235.8 hPa WSW 2.3 km/h 8.9 km/h 79 % 0 mm
03:15 -14 °C -15.9 °C 34198.6 hPa WSW 3.4 km/h 9.8 km/h 79 % 0 mm
03:20 -13.9 °C -15.8 °C 34198.6 hPa WSW 6.3 km/h 15.6 km/h 79 % 0 mm
03:21 -13.9 °C -15.8 °C 34198.6 hPa WSW 6.8 km/h 15.6 km/h 79 % 0 mm
03:26 -13.8 °C -15.7 °C 34198.6 hPa West 8.2 km/h 15.6 km/h 79 % 0 mm
03:31 -13.8 °C -15.6 °C 34198.6 hPa West 7.6 km/h 14.5 km/h 80 % 0 mm
03:34 -13.8 °C -15.6 °C 34198.6 hPa WNW 7.6 km/h 12.7 km/h 80 % 0 mm
03:36 -13.7 °C -15.5 °C 34198.6 hPa WNW 6.3 km/h 11.1 km/h 80 % 0 mm
03:40 -13.7 °C -15.5 °C 34198.6 hPa WNW 4.7 km/h 11.1 km/h 80 % 0 mm
03:42 -13.7 °C -15.5 °C 34198.6 hPa West 3.7 km/h 14.5 km/h 80 % 0 mm
03:46 -13.7 °C -15.4 °C 34198.6 hPa SW 4.2 km/h 14.5 km/h 80 % 0 mm
03:48 -13.7 °C -15.5 °C 34198.6 hPa WSW 4.7 km/h 14.5 km/h 80 % 0 mm
03:53 -13.7 °C -15.4 °C 34198.6 hPa West 5.6 km/h 12.7 km/h 80 % 0 mm
03:58 -13.7 °C -15.4 °C 34198.6 hPa West 7.2 km/h 12.7 km/h 81 % 0 mm
04:00 -13.7 °C -15.4 °C 34198.6 hPa West 7.6 km/h 12.7 km/h 81 % 0 mm
04:01 -13.7 °C -15.4 °C 34198.6 hPa West 7.6 km/h 12.7 km/h 81 % 0 mm
04:04 -13.7 °C -15.4 °C 34198.6 hPa West 7.2 km/h 12.7 km/h 81 % 0 mm
04:09 -13.7 °C -15.4 °C 34198.6 hPa WSW 6.4 km/h 12.2 km/h 81 % 0 mm
04:14 -13.7 °C -15.4 °C 34164.7 hPa SW 9.7 km/h 22 km/h 81 % 0 mm
04:19 -13.7 °C -15.4 °C 34164.7 hPa SW 11.4 km/h 22 km/h 81 % 0 mm
04:24 -13.7 °C -15.4 °C 34164.7 hPa SW 10.3 km/h 15.6 km/h 81 % 0 mm
04:26 -13.7 °C -15.4 °C 34164.7 hPa SW 10.1 km/h 15.6 km/h 81 % 0 mm
04:29 -13.8 °C -15.4 °C 34164.7 hPa SW 9.7 km/h 15.6 km/h 81 % 0 mm
04:33 -13.7 °C -15.4 °C 34164.7 hPa SSW 9.3 km/h 14.5 km/h 81 % 0 mm
04:35 -13.8 °C -15.4 °C 34164.7 hPa SSW 9.3 km/h 14.5 km/h 81 % 0 mm
04:38 -13.8 °C -15.4 °C 34164.7 hPa SSW 9 km/h 14.5 km/h 81 % 0 mm
04:43 -13.8 °C -15.4 °C 34164.7 hPa SW 9.3 km/h 16.3 km/h 81 % 0 mm
04:48 -13.8 °C -15.4 °C 34164.7 hPa SW 8 km/h 16.3 km/h 81 % 0 mm
04:49 -13.8 °C -15.4 °C 34164.7 hPa SW 7.7 km/h 16.3 km/h 81 % 0 mm
04:54 -13.7 °C -15.4 °C 34164.7 hPa SSW 5.1 km/h 10.3 km/h 81 % 0 mm
04:58 -13.8 °C -15.4 °C 34130.9 hPa SW 4.7 km/h 9.8 km/h 82 % 0 mm
05:03 -13.7 °C -15.3 °C 34130.9 hPa SW 5.5 km/h 11.1 km/h 82 % 0 mm
05:08 -13.7 °C -15.3 °C 34130.9 hPa WSW 6.3 km/h 14 km/h 82 % 0 mm
05:12 -13.7 °C -15.3 °C 34130.9 hPa WSW 6 km/h 14 km/h 82 % 0 mm
05:17 -13.7 °C -15.3 °C 34164.7 hPa SW 4.7 km/h 11.1 km/h 82 % 0 mm
05:19 -13.7 °C -15.3 °C 34164.7 hPa SW 5.1 km/h 10.3 km/h 82 % 0 mm
05:21 -13.6 °C -15.2 °C 34164.7 hPa SW 6 km/h 12.7 km/h 82 % 0 mm
05:24 -13.6 °C -15.2 °C 34164.7 hPa SW 6.8 km/h 12.7 km/h 82 % 0 mm
05:29 -13.6 °C -15.2 °C 34130.9 hPa SW 8.5 km/h 14.5 km/h 82 % 0 mm
05:30 -13.6 °C -15.2 °C 34130.9 hPa SW 8.2 km/h 14.5 km/h 82 % 0 mm
05:35 -13.6 °C -15.2 °C 34130.9 hPa SW 6.4 km/h 14.5 km/h 82 % 0 mm
05:40 -13.6 °C -15.2 °C 34130.9 hPa SW 6.8 km/h 15.6 km/h 82 % 0 mm
05:43 -13.6 °C -15.2 °C 34164.7 hPa SW 7.2 km/h 16.9 km/h 82 % 0 mm
05:48 -13.6 °C -15.2 °C 34164.7 hPa WSW 6.9 km/h 16.9 km/h 82 % 0 mm
05:49 -13.6 °C -15.2 °C 34164.7 hPa WSW 6.4 km/h 16.9 km/h 82 % 0 mm
05:51 -13.6 °C -15.2 °C 34164.7 hPa WSW 6.4 km/h 16.9 km/h 82 % 0 mm
05:56 -13.6 °C -15.2 °C 34164.7 hPa SW 5 km/h 12.2 km/h 82 % 0 mm
06:01 -13.6 °C -15.1 °C 34164.7 hPa SW 6.8 km/h 19.2 km/h 83 % 0 mm
06:03 -13.6 °C -15.1 °C 34164.7 hPa SW 7.2 km/h 19.2 km/h 83 % 0 mm
06:08 -13.5 °C -15 °C 34164.7 hPa SW 7.6 km/h 19.2 km/h 83 % 0 mm
06:13 -13.5 °C -15 °C 34130.9 hPa SW 6.8 km/h 14 km/h 83 % 0 mm
06:18 -13.5 °C -15 °C 34130.9 hPa SW 4.7 km/h 14 km/h 83 % 0 mm
06:20 -13.4 °C -14.9 °C 34130.9 hPa WSW 3.9 km/h 14 km/h 83 % 0 mm
06:25 -13.4 °C -14.9 °C 34130.9 hPa SW 4.7 km/h 15.6 km/h 83 % 0 mm
06:30 -13.4 °C -14.9 °C 34130.9 hPa SW 8 km/h 16.9 km/h 83 % 0 mm
06:33 -13.4 °C -14.9 °C 34130.9 hPa SW 8.2 km/h 16.9 km/h 83 % 0 mm
06:38 -13.4 °C -14.9 °C 34130.9 hPa SW 5.6 km/h 11.1 km/h 83 % 0 mm
06:41 -13.4 °C -14.9 °C 34130.9 hPa SW 3.7 km/h 11.1 km/h 83 % 0 mm
06:42 -13.4 °C -14.9 °C 34130.9 hPa SW 3.1 km/h 10.3 km/h 83 % 0 mm
06:47 -13.4 °C -14.9 °C 34130.9 hPa SW 4.3 km/h 10.3 km/h 83 % 0 mm
06:48 -13.4 °C -14.9 °C 34130.9 hPa SSW 3.9 km/h 10.3 km/h 83 % 0 mm
06:50 -13.4 °C -14.9 °C 34130.9 hPa SSW 5 km/h 10.3 km/h 83 % 0 mm
06:55 -13.4 °C -14.9 °C 34130.9 hPa SW 5.5 km/h 26.2 km/h 83 % 0 mm
07:00 -13.3 °C -14.8 °C 34164.7 hPa SW 7.7 km/h 26.2 km/h 83 % 0 mm
07:03 -13.2 °C -14.7 °C 34164.7 hPa SW 9.8 km/h 26.2 km/h 83 % 0 mm
07:08 -13.2 °C -14.7 °C 34164.7 hPa SW 10.3 km/h 20.9 km/h 83 % 0 mm
07:09 -13.2 °C -14.7 °C 34164.7 hPa SW 10.3 km/h 20.9 km/h 83 % 0 mm
07:14 -13.1 °C -14.6 °C 34130.9 hPa SW 9.7 km/h 20.3 km/h 83 % 0 mm
07:19 -13.1 °C -14.6 °C 34130.9 hPa SSW 9.3 km/h 14.5 km/h 83 % 0 mm
07:20 -13.1 °C -14.6 °C 34130.9 hPa SW 9.3 km/h 14.5 km/h 83 % 0 mm
07:25 -13 °C -14.5 °C 34130.9 hPa SW 10.1 km/h 22 km/h 83 % 0 mm
07:27 -13 °C -14.5 °C 34130.9 hPa SW 9.8 km/h 22 km/h 83 % 0 mm
07:32 -13 °C -14.5 °C 34164.7 hPa SSW 9.3 km/h 22 km/h 83 % 0 mm
07:36 -12.9 °C -14.4 °C 34164.7 hPa SSW 8.5 km/h 16.3 km/h 83 % 0 mm
07:41 -12.9 °C -14.4 °C 34164.7 hPa SW 9.3 km/h 15.6 km/h 83 % 0 mm
07:42 -12.9 °C -14.4 °C 34164.7 hPa SSW 9.3 km/h 15.6 km/h 83 % 0 mm
07:43 -12.9 °C -14.4 °C 34198.6 hPa SW 9.3 km/h 15.6 km/h 83 % 0 mm
07:47 -12.9 °C -14.4 °C 34198.6 hPa SW 9.7 km/h 15.6 km/h 83 % 0 mm
07:52 -12.9 °C -14.4 °C 34198.6 hPa SW 9 km/h 16.9 km/h 83 % 0 mm
07:56 -12.9 °C -14.4 °C 34198.6 hPa SSW 10.1 km/h 22 km/h 83 % 0 mm
08:01 -12.9 °C -14.4 °C 34198.6 hPa SSW 10.9 km/h 22 km/h 83 % 0 mm
08:02 -12.9 °C -14.4 °C 34198.6 hPa SSW 10.9 km/h 22 km/h 83 % 0 mm
08:07 -12.9 °C -14.4 °C 34198.6 hPa South 9.8 km/h 14.5 km/h 83 % 0 mm
08:12 -12.9 °C -14.4 °C 34235.8 hPa South 8.9 km/h 14.5 km/h 83 % 0 mm
08:16 -13 °C -14.5 °C 34235.8 hPa South 8.2 km/h 12.7 km/h 83 % 0 mm
08:19 -13.1 °C -14.6 °C 34235.8 hPa South 7.7 km/h 12.2 km/h 83 % 7.62 mm
08:20 -13.1 °C -14.6 °C 34235.8 hPa South 7.7 km/h 12.2 km/h 83 % 7.62 mm
08:21 -13.1 °C -14.6 °C 34235.8 hPa South 7.7 km/h 12.2 km/h 83 % 7.62 mm
08:26 -13.1 °C -14.6 °C 34235.8 hPa SSW 7.6 km/h 11.1 km/h 83 % 7.62 mm
08:27 -13.1 °C -14.6 °C 34235.8 hPa SSW 7.2 km/h 11.1 km/h 83 % 7.62 mm
08:28 -13.1 °C -14.6 °C 34235.8 hPa SSW 7.6 km/h 11.1 km/h 83 % 7.62 mm
08:32 -13.1 °C -14.6 °C 34235.8 hPa SSW 7.7 km/h 11.1 km/h 83 % 7.62 mm
08:37 -13.1 °C -14.6 °C 34235.8 hPa South 8.5 km/h 14 km/h 84 % 7.62 mm
08:39 -13.1 °C -14.6 °C 34235.8 hPa South 8 km/h 14 km/h 84 % 7.62 mm
08:44 -13.2 °C -14.6 °C 34235.8 hPa SSW 6.9 km/h 14 km/h 84 % 7.62 mm
08:45 -13.2 °C -14.6 °C 34235.8 hPa SSW 6.9 km/h 14 km/h 84 % 7.62 mm
08:50 -13.2 °C -14.6 °C 34235.8 hPa WSW 6 km/h 8.9 km/h 84 % 7.62 mm
08:51 -13.2 °C -14.6 °C 34235.8 hPa WSW 6.3 km/h 8.9 km/h 84 % 7.62 mm
08:55 -13.3 °C -14.7 °C 34235.8 hPa WSW 6 km/h 8.9 km/h 84 % 7.62 mm
08:58 -13.3 °C -14.7 °C 34235.8 hPa WSW 5 km/h 8.9 km/h 84 % 7.62 mm
09:00 -13.3 °C -14.7 °C 34235.8 hPa WSW 3.9 km/h 7.6 km/h 84 % 7.62 mm
09:04 -13.3 °C -14.6 °C 34235.8 hPa SW 1.6 km/h 9.8 km/h 85 % 7.62 mm
09:10 -13.3 °C -14.6 °C 34235.8 hPa SW 4.3 km/h 9.8 km/h 85 % 7.62 mm
09:13 -13.3 °C -14.6 °C 34235.8 hPa SW 7.2 km/h 9.8 km/h 85 % 7.62 mm
09:18 -13.3 °C -14.6 °C 34235.8 hPa SW 7.6 km/h 11.1 km/h 85 % 0 mm
09:23 -13.2 °C -14.4 °C 34235.8 hPa WSW 8 km/h 11.1 km/h 86 % 0 mm
09:24 -13.2 °C -14.4 °C 34235.8 hPa WSW 7.6 km/h 11.1 km/h 86 % 0 mm
09:26 -13.2 °C -14.4 °C 34235.8 hPa WSW 6.4 km/h 11.1 km/h 86 % 0 mm
09:31 -13.2 °C -14.4 °C 34235.8 hPa SW 3.1 km/h 6.9 km/h 86 % 0 mm
09:33 -13.2 °C -14.4 °C 34235.8 hPa SW 2.1 km/h 6.4 km/h 86 % 0 mm
09:38 -13.3 °C -14.5 °C 34235.8 hPa North 0.3 km/h   86 % 0 mm
09:42 -13.2 °C -14.4 °C 34235.8 hPa Calm     86 % 0 mm
09:44 -13.2 °C -14.4 °C 34235.8 hPa Calm     86 % 0 mm
09:49 -13.2 °C -14.3 °C 34235.8 hPa Calm     87 % 0 mm
09:54 -13.2 °C -14.3 °C 34235.8 hPa Calm     87 % 0 mm
09:59 -13.2 °C -14.3 °C 34235.8 hPa Calm     87 % 0 mm
10:02 -13.2 °C -14.3 °C 34235.8 hPa Calm     87 % 0 mm
10:03 -13.2 °C -14.3 °C 34235.8 hPa Calm     87 % 0 mm
10:08 -13.2 °C -14.3 °C 34235.8 hPa Calm     87 % 0 mm
10:09 -13.2 °C -14.3 °C 34235.8 hPa Calm     88 % 0 mm
10:12 -13.2 °C -14.3 °C 34235.8 hPa Calm     88 % 0 mm
10:15 -13.2 °C -14.3 °C 34235.8 hPa Calm     88 % 0 mm
10:20 -13.2 °C -14.3 °C 34235.8 hPa Calm     88 % 7.62 mm
10:23 -13.2 °C -14.3 °C 34235.8 hPa Calm     88 % 7.62 mm
10:24 -13.2 °C -14.3 °C 34235.8 hPa Calm     88 % 7.62 mm
10:29 -13.2 °C -14.3 °C 34235.8 hPa Calm     88 % 7.62 mm
10:33 -13.2 °C -14.2 °C 34235.8 hPa Calm     89 % 7.62 mm
10:34 -13.2 °C -14.2 °C 34235.8 hPa Calm     89 % 7.62 mm
10:39 -13.3 °C -14.2 °C 34235.8 hPa Calm     89 % 7.62 mm
10:41 -13.3 °C -14.2 °C 34235.8 hPa Calm     89 % 7.62 mm
10:42 -13.3 °C -14.2 °C 34235.8 hPa Calm     89 % 7.62 mm
10:47 -13.3 °C -14.2 °C 34235.8 hPa Calm     89 % 7.62 mm
10:50 -13.3 °C -14.2 °C 34235.8 hPa Calm     89 % 7.62 mm
10:55 -13.2 °C -14.1 °C 34235.8 hPa Calm     90 % 7.62 mm
11:00 -13.2 °C -14.1 °C 34235.8 hPa Calm     90 % 7.62 mm
11:05 -13.2 °C -14.1 °C 34235.8 hPa Calm     90 % 7.62 mm
11:06 -13.2 °C -14.1 °C 34235.8 hPa Calm     90 % 7.62 mm
11:11 -13.2 °C -14.1 °C 34235.8 hPa Calm     90 % 7.62 mm
11:12 -13.2 °C -14 °C 34198.6 hPa Calm     90 % 7.62 mm
11:17 -13.2 °C -14 °C 34198.6 hPa Calm     90 % 0 mm
11:19 -13.2 °C -13.9 °C 34198.6 hPa Calm     91 % 0 mm
11:24 -13.1 °C -13.9 °C 34198.6 hPa Calm     91 % 0 mm
11:26 -13.1 °C -13.9 °C 34198.6 hPa Calm     91 % 0 mm
11:31 -13.1 °C -13.9 °C 34198.6 hPa Calm     91 % 0 mm
11:35 -13.1 °C -13.8 °C 34198.6 hPa Calm     91 % 0 mm
11:40 -13.1 °C -13.8 °C 34198.6 hPa Calm     91 % 0 mm
11:42 -13.1 °C -13.8 °C 34198.6 hPa Calm     91 % 0 mm
11:47 -13.1 °C -13.8 °C 34164.7 hPa Calm     91 % 0 mm
11:49 -13.1 °C -13.8 °C 34164.7 hPa Calm     91 % 0 mm
11:54 -13.1 °C -13.7 °C 34164.7 hPa Calm     92 % 0 mm
11:59 -13 °C -13.7 °C 34164.7 hPa Calm     92 % 0 mm
12:02 -13 °C -13.7 °C 34164.7 hPa Calm     92 % 0 mm
12:07 -13 °C -13.7 °C 34164.7 hPa Calm     92 % 0 mm
12:10 -13 °C -13.7 °C 34164.7 hPa Calm   4.2 km/h 92 % 0 mm
12:15 -13 °C -13.7 °C 34164.7 hPa Calm   4.2 km/h 92 % 0 mm
12:20 -13 °C -13.7 °C 34164.7 hPa Calm   3.4 km/h 92 % 0 mm
12:22 -13 °C -13.7 °C 34164.7 hPa Calm   3.4 km/h 92 % 0 mm
12:27 -13.1 °C -13.7 °C 34164.7 hPa Calm     92 % 0 mm
12:29 -13.1 °C -13.7 °C 34130.9 hPa Calm     92 % 0 mm
12:32 -13 °C -13.7 °C 34130.9 hPa Calm     92 % 0 mm
12:37 -13 °C -13.7 °C 34130.9 hPa Calm     92 % 0 mm
12:40 -13 °C -13.7 °C 34130.9 hPa Calm     92 % 0 mm
12:45 -13 °C -13.7 °C 34164.7 hPa Calm     92 % 0 mm
12:46 -13 °C -13.7 °C 34164.7 hPa Calm     92 % 0 mm
12:51 -12.9 °C -13.6 °C 34164.7 hPa Calm     92 % 0 mm
12:56 -12.9 °C -13.6 °C 34164.7 hPa Calm     92 % 0 mm
12:57 -12.9 °C -13.6 °C 34164.7 hPa Calm     92 % 0 mm
13:00 -12.9 °C -13.6 °C 34164.7 hPa Calm     92 % 0 mm
13:03 -12.9 °C -13.6 °C 34164.7 hPa Calm     92 % 0 mm
13:05 -12.9 °C -13.6 °C 34164.7 hPa Calm     92 % 0 mm
13:10 -12.9 °C -13.6 °C 34164.7 hPa South 0.5 km/h 5.6 km/h 92 % 0 mm
13:11 -12.9 °C -13.6 °C 34164.7 hPa SSW 1 km/h 5.6 km/h 92 % 0 mm
13:16 -12.8 °C -13.4 °C 34130.9 hPa SSW 2.6 km/h 6.4 km/h 93 % 0 mm
13:21 -12.8 °C -13.4 °C 34130.9 hPa SSW 1.8 km/h 6.4 km/h 93 % 0 mm
13:24 -12.8 °C -13.4 °C 34130.9 hPa SW 2.1 km/h 5.6 km/h 93 % 0 mm
13:26 -12.8 °C -13.4 °C 34130.9 hPa SW 1.3 km/h 5.6 km/h 93 % 0 mm
13:31 -12.8 °C -13.4 °C 34130.9 hPa SW 1 km/h 5.6 km/h 92 % 0 mm
13:34 -12.7 °C -13.4 °C 34130.9 hPa SSE 0.3 km/h 2.9 km/h 92 % 0 mm
13:37 -12.7 °C -13.4 °C 34130.9 hPa SSE 0.3 km/h 2.9 km/h 92 % 0 mm
13:42 -12.7 °C -13.4 °C 34130.9 hPa Calm     92 % 0 mm
13:44 -12.7 °C -13.4 °C 34130.9 hPa Calm     92 % 0 mm
13:47 -12.7 °C -13.4 °C 34130.9 hPa Calm     92 % 0 mm
13:54 -12.7 °C -13.4 °C 34130.9 hPa Calm     92 % 0 mm
13:59 -12.7 °C -13.4 °C 34130.9 hPa Calm     92 % 0 mm
14:00 -12.7 °C -13.4 °C 34130.9 hPa Calm     92 % 0 mm
14:01 -12.7 °C -13.4 °C 34130.9 hPa Calm     92 % 0 mm
14:06 -12.7 °C -13.4 °C 34130.9 hPa Calm     92 % 0 mm
14:08 -12.7 °C -13.4 °C 34130.9 hPa Calm     92 % 0 mm
14:13 -12.8 °C -13.4 °C 34130.9 hPa Calm     92 % 0 mm
14:15 -12.8 °C -13.4 °C 34130.9 hPa Calm     92 % 0 mm
14:20 -12.8 °C -13.4 °C 34130.9 hPa Calm     92 % 0 mm
14:25 -12.8 °C -13.5 °C 34130.9 hPa WSW 0.3 km/h 4.2 km/h 92 % 0 mm
14:27 -12.8 °C -13.5 °C 34130.9 hPa WSW 0.5 km/h 4.2 km/h 92 % 0 mm
14:32 -12.8 °C -13.5 °C 34130.9 hPa WSW 0.8 km/h 4.2 km/h 92 % 0 mm
14:37 -12.9 °C -13.6 °C 34130.9 hPa WSW 0.5 km/h 6.9 km/h 92 % 0 mm
14:38 -12.9 °C -13.6 °C 34130.9 hPa WSW 0.8 km/h 6.9 km/h 92 % 0 mm
14:40 -12.9 °C -13.6 °C 34130.9 hPa WSW 1.8 km/h 6.9 km/h 92 % 0 mm
14:44 -12.9 °C -13.6 °C 34130.9 hPa WSW 1.8 km/h 9.3 km/h 92 % 0 mm
14:46 -12.9 °C -13.6 °C 34130.9 hPa SW 3.4 km/h 14.5 km/h 92 % 0 mm
14:51 -12.9 °C -13.6 °C 34130.9 hPa SW 6.4 km/h 15 km/h 92 % 0 mm
14:53 -12.9 °C -13.6 °C 34130.9 hPa SW 7.6 km/h 15 km/h 92 % 7.62 mm
14:58 -12.9 °C -13.6 °C 34130.9 hPa WSW 7.7 km/h 15 km/h 92 % 25.4 mm
14:59 -12.9 °C -13.6 °C 34130.9 hPa WSW 7.2 km/h 15 km/h 92 % 25.4 mm
15:04 -13 °C -13.7 °C 34130.9 hPa NNW 5.5 km/h 14 km/h 92 % 38.1 mm
15:08 -13.1 °C -13.7 °C 34130.9 hPa NNE 3.4 km/h 14 km/h 92 % 45.72 mm
15:09 -13.1 °C -13.8 °C 34130.9 hPa NE 2.9 km/h 14 km/h 92 % 58.42 mm
15:14 -13.2 °C -13.9 °C 34164.7 hPa NE 6.3 km/h 19.6 km/h 91 % 63.5 mm
15:17 -13.2 °C -14 °C 34164.7 hPa ENE 8.9 km/h 19.6 km/h 91 % 76.2 mm
15:22 -13.4 °C -14.2 °C 34164.7 hPa ENE 13.7 km/h 37.5 km/h 91 % 96.52 mm
15:27 -13.5 °C -14.3 °C 34164.7 hPa ENE 12.7 km/h 37.5 km/h 90 % 104.14 mm
15:29 -13.6 °C -14.5 °C 34164.7 hPa NE 12.2 km/h 37.5 km/h 90 % 104.14 mm
15:34 -13.8 °C -14.6 °C 34164.7 hPa ENE 9.8 km/h 29.5 km/h 90 % 116.84 mm
15:36 -13.9 °C -14.8 °C 34164.7 hPa ENE 12.4 km/h 36.5 km/h 89 % 121.92 mm
15:41 -14.1 °C -15.1 °C 34164.7 hPa ENE 16.9 km/h 36.5 km/h 88 % 129.54 mm
15:43 -14.2 °C -15.2 °C 34198.6 hPa ENE 16.6 km/h 36.5 km/h 88 % 129.54 mm
15:48 -14.2 °C -15.3 °C 34198.6 hPa ENE 14.2 km/h 27.2 km/h 87 % 134.62 mm
15:52 -14.3 °C -15.4 °C 34198.6 hPa ENE 13.7 km/h 27.2 km/h 87 % 142.24 mm
15:57 -14.4 °C -15.6 °C 34198.6 hPa ENE 14.2 km/h 38.3 km/h 87 % 129.54 mm
16:01 -14.6 °C -15.7 °C 34130.9 hPa ENE 20.9 km/h 45.9 km/h 87 % 129.54 mm
16:08 -14.6 °C -15.8 °C 34130.9 hPa NE 17.4 km/h 45.9 km/h 86 % 109.22 mm
16:14 -14.7 °C -15.9 °C 34130.9 hPa ENE 13.7 km/h 32.3 km/h 86 % 109.22 mm
16:19 -14.8 °C -16 °C 34130.9 hPa NE 11.1 km/h 32.3 km/h 86 % 96.52 mm
16:23 -14.8 °C -16 °C 34130.9 hPa ENE 15 km/h 19.2 km/h 86 % 76.2 mm
16:24 -14.8 °C -16 °C 34130.9 hPa ENE 13.2 km/h 19.2 km/h 86 % 83.82 mm
16:25 -14.8 °C -16 °C 34130.9 hPa East 11.4 km/h 11.4 km/h 86 % 83.82 mm
16:26 -14.8 °C -16 °C 34130.9 hPa East 10.3 km/h 10.3 km/h 86 % 83.82 mm
16:27 -14.8 °C -16 °C 34130.9 hPa East 9 km/h 9 km/h 86 % 83.82 mm
16:28 -14.8 °C -16 °C 34130.9 hPa ESE 8.2 km/h 9.8 km/h 86 % 83.82 mm
16:29 -14.8 °C -16 °C 34130.9 hPa ESE 8.2 km/h 9.8 km/h 86 % 91.44 mm
16:30 -14.8 °C -16 °C 34130.9 hPa SSW 7.6 km/h 9.8 km/h 86 % 91.44 mm
16:31 -14.8 °C -16 °C 34130.9 hPa SW 6.9 km/h 10.3 km/h 86 % 76.2 mm
16:32 -14.9 °C -16.1 °C 34130.9 hPa WSW 6.9 km/h 10.3 km/h 86 % 83.82 mm
16:33 -14.9 °C -16.1 °C 34130.9 hPa West 5.5 km/h 10.3 km/h 86 % 83.82 mm
16:34 -14.9 °C -16.1 °C 34130.9 hPa WSW 5.1 km/h 10.3 km/h 86 % 91.44 mm
16:35 -14.9 °C -16.1 °C 34130.9 hPa SW 5.1 km/h 10.3 km/h 86 % 91.44 mm
16:36 -14.9 °C -16.1 °C 34130.9 hPa SW 5.1 km/h 10.3 km/h 86 % 76.2 mm
16:37 -14.9 °C -16.2 °C 34130.9 hPa SW 5.5 km/h 10.3 km/h 86 % 76.2 mm
16:38 -14.9 °C -16.2 °C 34130.9 hPa SSW 5.6 km/h 10.3 km/h 86 % 83.82 mm
16:39 -14.9 °C -16.2 °C 34130.9 hPa SSE 5.5 km/h 10.3 km/h 86 % 83.82 mm
16:40 -14.9 °C -16.2 °C 34130.9 hPa SE 6 km/h 10.3 km/h 86 % 91.44 mm
16:41 -14.9 °C -16.2 °C 34130.9 hPa ESE 6.9 km/h 10.3 km/h 86 % 76.2 mm
16:42 -14.9 °C -16.2 °C 34130.9 hPa ESE 6.9 km/h 10.3 km/h 86 % 83.82 mm
16:43 -14.9 °C -16.2 °C 34130.9 hPa ESE 6.9 km/h 15 km/h 86 % 83.82 mm
16:44 -14.9 °C -16.2 °C 34130.9 hPa East 8 km/h 15 km/h 86 % 83.82 mm
16:45 -14.9 °C -16.2 °C 34164.7 hPa East 9.3 km/h 15 km/h 86 % 83.82 mm
16:46 -14.9 °C -16.2 °C 34164.7 hPa East 9.8 km/h 15 km/h 86 % 76.2 mm
16:47 -14.9 °C -16.2 °C 34164.7 hPa ENE 9.8 km/h 15 km/h 86 % 76.2 mm
16:48 -14.9 °C -16.2 °C 34164.7 hPa East 9.8 km/h 15 km/h 86 % 76.2 mm
16:49 -14.9 °C -16.2 °C 34164.7 hPa ENE 10.3 km/h 15 km/h 86 % 76.2 mm
16:50 -14.9 °C -16.2 °C 34164.7 hPa ENE 9.8 km/h 15 km/h 86 % 83.82 mm
16:51 -14.9 °C -16.2 °C 34164.7 hPa East 9.7 km/h 15 km/h 86 % 76.2 mm
16:52 -15 °C -16.2 °C 34164.7 hPa East 9.7 km/h 15 km/h 86 % 83.82 mm
16:53 -15 °C -16.2 °C 34164.7 hPa East 10.3 km/h 14.5 km/h 86 % 83.82 mm
16:54 -15 °C -16.2 °C 34164.7 hPa ESE 9.7 km/h 11.1 km/h 86 % 91.44 mm
16:55 -15 °C -16.2 °C 34164.7 hPa East 9 km/h 14.5 km/h 86 % 91.44 mm
16:56 -15 °C -16.2 °C 34164.7 hPa East 9 km/h 14.5 km/h 86 % 83.82 mm
16:57 -14.9 °C -16.2 °C 34164.7 hPa East 9 km/h 16.3 km/h 86 % 83.82 mm
16:58 -14.9 °C -16.2 °C 34164.7 hPa ESE 9.3 km/h 16.3 km/h 86 % 91.44 mm
16:59 -14.9 °C -16.2 °C 34164.7 hPa ESE 9.3 km/h 16.3 km/h 86 % 91.44 mm
17:00 -14.9 °C -16.2 °C 34164.7 hPa ESE 9.7 km/h 16.3 km/h 86 % 91.44 mm
17:01 -14.9 °C -16.2 °C 34164.7 hPa ESE 9.7 km/h 16.3 km/h 86 % 91.44 mm
17:02 -14.9 °C -16.2 °C 34164.7 hPa East 9.7 km/h 16.3 km/h 86 % 91.44 mm
17:03 -14.9 °C -16.2 °C 34164.7 hPa ESE 9.7 km/h 16.3 km/h 86 % 91.44 mm
17:04 -14.9 °C -16.2 °C 34164.7 hPa ESE 9.3 km/h 16.3 km/h 86 % 91.44 mm
17:05 -14.9 °C -16.2 °C 34164.7 hPa ESE 9.3 km/h 20.3 km/h 86 % 91.44 mm
17:06 -14.9 °C -16.2 °C 34164.7 hPa ESE 9.8 km/h 20.3 km/h 86 % 83.82 mm
17:07 -14.9 °C -16.2 °C 34164.7 hPa ESE 10.1 km/h 20.3 km/h 86 % 83.82 mm
17:17 -14.9 °C -16.2 °C 34164.7 hPa ESE 10.1 km/h 20.3 km/h 86 % 83.82 mm
17:20 -15 °C -16.2 °C 34164.7 hPa ESE 8.5 km/h 19.2 km/h 86 % 76.2 mm
17:25 -14.9 °C -16.2 °C 34164.7 hPa East 8.9 km/h 19.2 km/h 86 % 63.5 mm
17:26 -14.9 °C -16.2 °C 34164.7 hPa East 8.5 km/h 19.2 km/h 86 % 63.5 mm
17:30 -14.9 °C -16.2 °C 34198.6 hPa ESE 6.3 km/h 12.7 km/h 86 % 50.8 mm
17:34 -14.9 °C -16.2 °C 34198.6 hPa SE 5.6 km/h 14.5 km/h 86 % 50.8 mm
17:37 -14.9 °C -16.2 °C 34198.6 hPa SE 8 km/h 17.9 km/h 86 % 45.72 mm
17:42 -14.9 °C -16.2 °C 34164.7 hPa ESE 8.5 km/h 17.9 km/h 86 % 33.02 mm
17:47 -14.9 °C -16.2 °C 34164.7 hPa ESE 7.7 km/h 19.2 km/h 86 % 25.4 mm
17:48 -14.9 °C -16.2 °C 34164.7 hPa ESE 8.2 km/h 19.2 km/h 86 % 25.4 mm
17:53 -14.8 °C -16 °C 34164.7 hPa East 11.4 km/h 19.6 km/h 86 % 20.32 mm
17:55 -14.8 °C -16 °C 34164.7 hPa East 11.4 km/h 20.3 km/h 86 % 12.7 mm
17:57 -14.8 °C -16 °C 34164.7 hPa East 11.1 km/h 20.3 km/h 86 % 7.62 mm
18:02 -14.8 °C -16 °C 34164.7 hPa East 8.9 km/h 20.3 km/h 86 % 0 mm
18:03 -14.8 °C -16 °C 34164.7 hPa East 7.7 km/h 20.3 km/h 86 % 0 mm
18:04 -14.8 °C -16 °C 34164.7 hPa ESE 7.2 km/h 20.3 km/h 86 % 7.62 mm
18:09 -14.8 °C -16 °C 34164.7 hPa South 6.8 km/h 11.1 km/h 86 % 7.62 mm
18:14 -14.8 °C -16 °C 34164.7 hPa South 5.6 km/h 11.1 km/h 86 % 7.62 mm
18:17 -14.9 °C -16.1 °C 34164.7 hPa South 5.6 km/h 28.5 km/h 86 % 7.62 mm
18:19 -14.8 °C -16 °C 34164.7 hPa ESE 7.2 km/h 28.5 km/h 86 % 7.62 mm
18:24 -14.8 °C -16 °C 34164.7 hPa ESE 8.5 km/h 28.5 km/h 86 % 7.62 mm
18:26 -14.8 °C -16 °C 34164.7 hPa ESE 9 km/h 28.5 km/h 86 % 7.62 mm
18:29 -14.8 °C -16 °C 34164.7 hPa SE 7.2 km/h 12.7 km/h 86 % 7.62 mm
18:34 -14.8 °C -16 °C 34164.7 hPa SE 7.2 km/h 12.2 km/h 86 % 7.62 mm
18:35 -14.8 °C -16 °C 34164.7 hPa SE 7.2 km/h 15 km/h 86 % 7.62 mm
18:40 -14.8 °C -16 °C 34164.7 hPa ESE 9.8 km/h 18.7 km/h 86 % 7.62 mm
18:41 -14.8 °C -16 °C 34164.7 hPa ESE 9.8 km/h 18.7 km/h 86 % 7.62 mm
18:42 -14.8 °C -16 °C 34164.7 hPa ESE 10.1 km/h 18.7 km/h 86 % 7.62 mm
18:47 -14.8 °C -16 °C 34164.7 hPa ESE 9.8 km/h 18.7 km/h 86 % 7.62 mm
18:49 -14.8 °C -16 °C 34164.7 hPa ESE 9.8 km/h 16.9 km/h 86 % 7.62 mm
18:54 -14.8 °C -16 °C 34164.7 hPa East 7.7 km/h 16.9 km/h 86 % 7.62 mm
18:58 -14.9 °C -16.1 °C 34164.7 hPa NNE 6 km/h 16.3 km/h 86 % 7.62 mm
19:00 -14.9 °C -16.2 °C 34164.7 hPa North 3.7 km/h 9.3 km/h 86 % 7.62 mm
19:05 -14.9 °C -16.2 °C 34164.7 hPa North 2.9 km/h 8 km/h 86 % 0 mm
19:06 -15 °C -16.2 °C 34164.7 hPa NNE 2.9 km/h 8 km/h 86 % 0 mm
19:10 -15 °C -16.1 °C 34164.7 hPa NE 1.8 km/h 8 km/h 87 % 0 mm
19:12 -15 °C -16.1 °C 34164.7 hPa North 1.8 km/h 6.9 km/h 87 % 0 mm
19:17 -15.1 °C -16.2 °C 34130.9 hPa SW 2.9 km/h 9.8 km/h 87 % 0 mm
19:19 -15.1 °C -16.2 °C 34130.9 hPa SW 3.9 km/h 9.8 km/h 87 % 0 mm
19:24 -15.1 °C -16.2 °C 34130.9 hPa South 5.1 km/h 9.8 km/h 87 % 0 mm
19:27 -15.1 °C -16.2 °C 34130.9 hPa SSE 4.2 km/h 7.6 km/h 87 % 0 mm
19:32 -15 °C -16.1 °C 34130.9 hPa SSW 4.7 km/h 14 km/h 87 % 7.62 mm
19:37 -15 °C -16.1 °C 34130.9 hPa SSW 5.5 km/h 14 km/h 87 % 7.62 mm
19:42 -15.1 °C -16.1 °C 34130.9 hPa NE 3.1 km/h 12.2 km/h 88 % 7.62 mm
19:43 -15.1 °C -16.1 °C 34130.9 hPa NNE 3.1 km/h 12.2 km/h 88 % 7.62 mm
19:48 -15 °C -16 °C 34130.9 hPa East 2.3 km/h 12.7 km/h 88 % 7.62 mm
19:49 -15 °C -16 °C 34130.9 hPa East 2.3 km/h 12.7 km/h 88 % 7.62 mm
19:50 -15 °C -16 °C 34130.9 hPa ESE 2.3 km/h 12.7 km/h 88 % 7.62 mm
19:55 -15 °C -16 °C 34130.9 hPa East 1.3 km/h 8 km/h 88 % 12.7 mm
19:58 -15 °C -16 °C 34130.9 hPa SE 0.8 km/h 8 km/h 88 % 12.7 mm
20:01 -15 °C -16 °C 34130.9 hPa SE 1.6 km/h 8 km/h 88 % 12.7 mm
20:06 -15 °C -16 °C 34130.9 hPa SSW 1.6 km/h 12.2 km/h 88 % 12.7 mm
20:09 -15 °C -16 °C 34130.9 hPa NNE 3.4 km/h 12.2 km/h 88 % 12.7 mm
20:12 -15.1 °C -16 °C 34130.9 hPa North 4.3 km/h 12.2 km/h 89 % 12.7 mm
20:17 -15.1 °C -16 °C 34097 hPa North 3.9 km/h 9.3 km/h 89 % 12.7 mm
20:18 -15.1 °C -16 °C 34097 hPa NNW 3.4 km/h 9.3 km/h 89 % 12.7 mm
20:19 -15.1 °C -16 °C 34097 hPa NNW 3.4 km/h 9.3 km/h 89 % 12.7 mm
20:24 -15 °C -15.9 °C 34097 hPa East 2.3 km/h 11.1 km/h 89 % 12.7 mm
20:29 -14.9 °C -15.9 °C 34097 hPa ESE 5 km/h 11.1 km/h 89 % 12.7 mm
20:30 -14.9 °C -15.9 °C 34097 hPa ESE 5 km/h 11.1 km/h 89 % 7.62 mm
20:35 -14.9 °C -15.9 °C 34097 hPa SE 6 km/h 10.3 km/h 89 % 7.62 mm
20:38 -14.9 °C -15.9 °C 34097 hPa SE 5.1 km/h 9.3 km/h 89 % 7.62 mm
20:43 -14.9 °C -15.9 °C 34097 hPa ESE 6.3 km/h 11.1 km/h 89 % 7.62 mm
20:46 -14.9 °C -15.7 °C 34097 hPa ESE 6.3 km/h 14 km/h 90 % 7.62 mm
20:47 -14.9 °C -15.7 °C 34097 hPa ESE 6.3 km/h 14 km/h 90 % 7.62 mm
20:52 -14.8 °C -15.7 °C 34097 hPa East 8.9 km/h 14.5 km/h 90 % 0 mm
20:57 -14.8 °C -15.7 °C 34097 hPa East 9.3 km/h 20.3 km/h 90 % 0 mm
20:58 -14.8 °C -15.7 °C 34097 hPa East 9.7 km/h 20.3 km/h 90 % 0 mm
21:02 -14.8 °C -15.7 °C 34097 hPa East 8 km/h 20.3 km/h 90 % 0 mm
21:07 -14.8 °C -15.6 °C 34097 hPa East 8.5 km/h 16.9 km/h 90 % 0 mm
21:12 -14.8 °C -15.6 °C 34097 hPa East 8.2 km/h 16.9 km/h 90 % 0 mm
21:17 -14.8 °C -15.6 °C 34097 hPa ESE 7.6 km/h 16.3 km/h 90 % 0 mm
21:19 -14.8 °C -15.6 °C 34097 hPa East 8.2 km/h 16.3 km/h 90 % 0 mm
21:21 -14.8 °C -15.6 °C 34097 hPa East 8.2 km/h 16.3 km/h 90 % 0 mm
21:25 -14.7 °C -15.6 °C 34097 hPa ENE 9.8 km/h 16.3 km/h 90 % 0 mm
21:30 -14.7 °C -15.5 °C 34097 hPa NE 6.8 km/h 14.5 km/h 90 % 0 mm
21:35 -14.7 °C -15.5 °C 34097 hPa ENE 6.9 km/h 19.6 km/h 90 % 0 mm
21:36 -14.7 °C -15.5 °C 34097 hPa East 8 km/h 19.6 km/h 90 % 0 mm
21:41 -14.7 °C -15.5 °C 34097 hPa East 9.3 km/h 19.6 km/h 90 % 0 mm
21:42 -14.7 °C -15.5 °C 34097 hPa East 8.5 km/h 15.6 km/h 90 % 0 mm
21:47 -14.7 °C -15.5 °C 34097 hPa ENE 6 km/h 11.1 km/h 90 % 7.62 mm
21:49 -14.7 °C -15.5 °C 34097 hPa ENE 5.5 km/h 12.2 km/h 90 % 7.62 mm
21:54 -14.6 °C -15.4 °C 34097 hPa ENE 7.6 km/h 16.9 km/h 90 % 7.62 mm
21:55 -14.6 °C -15.4 °C 34097 hPa ENE 7.7 km/h 16.9 km/h 90 % 7.62 mm
22:00 -14.6 °C -15.4 °C 34097 hPa ENE 8.9 km/h 16.9 km/h 90 % 7.62 mm
22:01 -14.6 °C -15.6 °C 34097 hPa ENE 8.5 km/h 16.9 km/h 89 % 7.62 mm
22:06 -14.6 °C -15.6 °C 34097 hPa NNE 7.2 km/h 16.3 km/h 89 % 7.62 mm
22:08 -14.6 °C -15.6 °C 34097 hPa North 6.8 km/h 16.3 km/h 89 % 7.62 mm
22:13 -14.6 °C -15.6 °C 34097 hPa ENE 6.4 km/h 23 km/h 89 % 7.62 mm
22:15 -14.6 °C -15.6 °C 34097 hPa ENE 5.6 km/h 23 km/h 89 % 7.62 mm
22:21 -14.6 °C -15.6 °C 34097 hPa ENE 7.7 km/h 23 km/h 89 % 7.62 mm
22:22 -14.6 °C -15.6 °C 34097 hPa East 8 km/h 19.2 km/h 88 % 7.62 mm
22:23 -14.6 °C -15.6 °C 34097 hPa East 8 km/h 19.2 km/h 88 % 7.62 mm
22:28 -14.6 °C -15.6 °C 34097 hPa ENE 10.1 km/h 22 km/h 88 % 7.62 mm
22:32 -14.6 °C -15.6 °C 34097 hPa ENE 10.3 km/h 22 km/h 88 % 7.62 mm
22:37 -14.7 °C -15.7 °C 34097 hPa NE 7.2 km/h 17.9 km/h 88 % 7.62 mm
22:39 -14.7 °C -15.7 °C 34097 hPa NE 6.9 km/h 17.9 km/h 88 % 7.62 mm
22:44 -14.7 °C -15.7 °C 34097 hPa ENE 8.9 km/h 19.2 km/h 88 % 7.62 mm
22:49 -14.7 °C -15.7 °C 34097 hPa ENE 8.9 km/h 19.2 km/h 88 % 7.62 mm
22:55 -14.8 °C -15.8 °C 34097 hPa SW 6.4 km/h 14 km/h 88 % 20.32 mm
23:00 -14.8 °C -15.8 °C 34097 hPa SW 8.2 km/h 11.6 km/h 88 % 20.32 mm
23:01 -14.8 °C -15.9 °C 34097 hPa SW 8.9 km/h 11.6 km/h 87 % 25.4 mm
23:02 -14.9 °C -16 °C 34097 hPa SW 8.9 km/h 11.6 km/h 87 % 25.4 mm
23:07 -14.9 °C -16.1 °C 34097 hPa SW 6 km/h 11.6 km/h 87 % 25.4 mm
23:08 -14.9 °C -16.1 °C 34097 hPa SW 5.5 km/h 11.6 km/h 87 % 25.4 mm
23:13 -14.9 °C -16.1 °C 34097 hPa SSW 1.6 km/h 7.6 km/h 87 % 33.02 mm
23:14 -14.9 °C -16.1 °C 34097 hPa South 0.8 km/h 3.4 km/h 87 % 38.1 mm
23:16 -15 °C -16.1 °C 34097 hPa SSE 0.3 km/h 2.9 km/h 87 % 38.1 mm
23:21 -15 °C -16.1 °C 34097 hPa SSW 0.5 km/h 6.4 km/h 87 % 38.1 mm
23:25 -15.1 °C -16.1 °C 34097 hPa WSW 2.3 km/h 7.6 km/h 88 % 38.1 mm
23:28 -15.1 °C -16.1 °C 34097 hPa WSW 3.1 km/h 7.6 km/h 88 % 38.1 mm
23:30 -15.1 °C -16.1 °C 34097 hPa West 3.1 km/h 8 km/h 88 % 45.72 mm
23:35 -15.1 °C -16.1 °C 34097 hPa SW 3.4 km/h 8.9 km/h 88 % 45.72 mm
23:40 -15.2 °C -16.2 °C 34097 hPa SSW 3.1 km/h 8 km/h 88 % 38.1 mm
23:43 -15.2 °C -16.2 °C 34097 hPa South 1.6 km/h 6.4 km/h 88 % 38.1 mm
23:48 -15.2 °C -16.2 °C 34097 hPa SE 1.6 km/h 8.9 km/h 88 % 38.1 mm
23:49 -15.2 °C -16.2 °C 34097 hPa SE 2.3 km/h 12.7 km/h 88 % 38.1 mm
23:54 -15.2 °C -16.2 °C 34097 hPa East 8 km/h 16.9 km/h 88 % 33.02 mm
23:55 -15.2 °C -16.2 °C 34097 hPa East 8.2 km/h 16.9 km/h 88 % 33.02 mm
Vremenska postaja Senovo
Podatki zbrani iz Weather Underground - 3.75 mb

Script developed by  Jim McMurry - jmcmurry@mwt.net Adapted for the template by  Wim van der Kuil - Leuven-Template.eu

Vremenski podatki so objavljeni na:

European Weather Network

WeatherCloud

Weather Underground

AWEKAS

HAMweather, WeatherForYou, PWS Weather

MapView

Geostik

Slovenia weather network

Oprema, ki se uporablja:

Vremenski program
Cumulus

Vremenski server
Asus

Cumulus

Asus